sensor_id;sensor_type;location;lat;lon;timestamp;P1;durP1;ratioP1;P2;durP2;ratioP2
8279;SDS011;8335;42.646;23.380;2024-03-25T00:01:31;2.03;;;1.00;;
8279;SDS011;8335;42.646;23.380;2024-03-25T00:03:59;0.77;;;0.77;;
8279;SDS011;8335;42.646;23.380;2024-03-25T00:06:27;0.80;;;0.80;;
8279;SDS011;8335;42.646;23.380;2024-03-25T00:08:54;0.70;;;0.70;;
8279;SDS011;8335;42.646;23.380;2024-03-25T00:11:19;0.80;;;0.80;;
8279;SDS011;8335;42.646;23.380;2024-03-25T00:13:47;0.73;;;0.73;;
8279;SDS011;8335;42.646;23.380;2024-03-25T00:16:12;0.73;;;0.73;;
8279;SDS011;8335;42.646;23.380;2024-03-25T00:18:39;0.60;;;0.60;;
8279;SDS011;8335;42.646;23.380;2024-03-25T00:21:07;0.70;;;0.70;;
8279;SDS011;8335;42.646;23.380;2024-03-25T00:23:34;0.60;;;0.60;;
8279;SDS011;8335;42.646;23.380;2024-03-25T00:26:00;0.63;;;0.63;;
8279;SDS011;8335;42.646;23.380;2024-03-25T00:28:27;1.37;;;0.60;;
8279;SDS011;8335;42.646;23.380;2024-03-25T00:30:52;0.70;;;0.70;;
8279;SDS011;8335;42.646;23.380;2024-03-25T00:33:19;1.27;;;0.63;;
8279;SDS011;8335;42.646;23.380;2024-03-25T00:35:45;0.70;;;0.70;;
8279;SDS011;8335;42.646;23.380;2024-03-25T00:38:13;1.00;;;0.70;;
8279;SDS011;8335;42.646;23.380;2024-03-25T00:40:39;0.60;;;0.60;;
8279;SDS011;8335;42.646;23.380;2024-03-25T00:43:04;0.70;;;0.70;;
8279;SDS011;8335;42.646;23.380;2024-03-25T00:45:31;0.80;;;0.70;;
8279;SDS011;8335;42.646;23.380;2024-03-25T00:47:57;2.00;;;0.80;;
8279;SDS011;8335;42.646;23.380;2024-03-25T00:50:24;1.27;;;0.77;;
8279;SDS011;8335;42.646;23.380;2024-03-25T00:52:50;0.70;;;0.70;;
8279;SDS011;8335;42.646;23.380;2024-03-25T00:55:18;0.70;;;0.70;;
8279;SDS011;8335;42.646;23.380;2024-03-25T00:57:44;0.70;;;0.70;;
8279;SDS011;8335;42.646;23.380;2024-03-25T01:00:11;0.60;;;0.60;;
8279;SDS011;8335;42.646;23.380;2024-03-25T01:02:37;0.97;;;0.70;;
8279;SDS011;8335;42.646;23.380;2024-03-25T01:05:04;0.50;;;0.50;;
8279;SDS011;8335;42.646;23.380;2024-03-25T01:07:31;0.73;;;0.60;;
8279;SDS011;8335;42.646;23.380;2024-03-25T01:09:57;0.80;;;0.80;;
8279;SDS011;8335;42.646;23.380;2024-03-25T01:12:25;1.40;;;0.70;;
8279;SDS011;8335;42.646;23.380;2024-03-25T01:14:51;0.57;;;0.57;;
8279;SDS011;8335;42.646;23.380;2024-03-25T01:17:17;0.87;;;0.53;;
8279;SDS011;8335;42.646;23.380;2024-03-25T01:19:44;0.47;;;0.47;;
8279;SDS011;8335;42.646;23.380;2024-03-25T01:22:10;0.50;;;0.50;;
8279;SDS011;8335;42.646;23.380;2024-03-25T01:24:37;0.70;;;0.70;;
8279;SDS011;8335;42.646;23.380;2024-03-25T01:27:03;0.80;;;0.80;;
8279;SDS011;8335;42.646;23.380;2024-03-25T01:29:31;0.80;;;0.80;;
8279;SDS011;8335;42.646;23.380;2024-03-25T01:31:57;1.27;;;0.80;;
8279;SDS011;8335;42.646;23.380;2024-03-25T01:34:24;0.80;;;0.80;;
8279;SDS011;8335;42.646;23.380;2024-03-25T01:36:50;0.60;;;0.60;;
8279;SDS011;8335;42.646;23.380;2024-03-25T01:39:17;0.67;;;0.67;;
8279;SDS011;8335;42.646;23.380;2024-03-25T01:41:43;0.73;;;0.73;;
8279;SDS011;8335;42.646;23.380;2024-03-25T01:44:10;0.67;;;0.67;;
8279;SDS011;8335;42.646;23.380;2024-03-25T01:46:37;0.50;;;0.50;;
8279;SDS011;8335;42.646;23.380;2024-03-25T01:49:04;0.70;;;0.70;;
8279;SDS011;8335;42.646;23.380;2024-03-25T01:51:31;0.57;;;0.57;;
8279;SDS011;8335;42.646;23.380;2024-03-25T01:53:59;0.70;;;0.70;;
8279;SDS011;8335;42.646;23.380;2024-03-25T01:56:25;0.63;;;0.63;;
8279;SDS011;8335;42.646;23.380;2024-03-25T01:58:55;0.60;;;0.60;;
8279;SDS011;8335;42.646;23.380;2024-03-25T02:01:21;0.70;;;0.70;;
8279;SDS011;8335;42.646;23.380;2024-03-25T02:03:50;0.70;;;0.70;;
8279;SDS011;8335;42.646;23.380;2024-03-25T02:06:17;0.77;;;0.77;;
8279;SDS011;8335;42.646;23.380;2024-03-25T02:08:44;0.60;;;0.60;;
8279;SDS011;8335;42.646;23.380;2024-03-25T02:11:10;0.90;;;0.90;;
8279;SDS011;8335;42.646;23.380;2024-03-25T02:13:37;1.57;;;0.77;;
8279;SDS011;8335;42.646;23.380;2024-03-25T02:16:03;6.03;;;1.00;;
8279;SDS011;8335;42.646;23.380;2024-03-25T02:18:31;0.70;;;0.70;;
8279;SDS011;8335;42.646;23.380;2024-03-25T02:20:58;0.73;;;0.73;;
8279;SDS011;8335;42.646;23.380;2024-03-25T02:23:26;0.90;;;0.90;;
8279;SDS011;8335;42.646;23.380;2024-03-25T02:25:53;0.70;;;0.70;;
8279;SDS011;8335;42.646;23.380;2024-03-25T02:28:20;1.20;;;0.77;;
8279;SDS011;8335;42.646;23.380;2024-03-25T02:30:46;0.73;;;0.73;;
8279;SDS011;8335;42.646;23.380;2024-03-25T02:33:13;0.80;;;0.80;;
8279;SDS011;8335;42.646;23.380;2024-03-25T02:35:39;0.60;;;0.60;;
8279;SDS011;8335;42.646;23.380;2024-03-25T02:38:13;0.87;;;0.87;;
8279;SDS011;8335;42.646;23.380;2024-03-25T02:40:40;0.80;;;0.80;;
8279;SDS011;8335;42.646;23.380;2024-03-25T02:43:09;0.80;;;0.80;;
8279;SDS011;8335;42.646;23.380;2024-03-25T02:45:35;0.80;;;0.80;;
8279;SDS011;8335;42.646;23.380;2024-03-25T02:48:02;2.77;;;0.90;;
8279;SDS011;8335;42.646;23.380;2024-03-25T02:50:28;0.77;;;0.77;;
8279;SDS011;8335;42.646;23.380;2024-03-25T02:52:55;0.80;;;0.80;;
8279;SDS011;8335;42.646;23.380;2024-03-25T02:55:20;4.00;;;1.00;;
8279;SDS011;8335;42.646;23.380;2024-03-25T02:57:47;0.80;;;0.80;;
8279;SDS011;8335;42.646;23.380;2024-03-25T03:00:14;0.90;;;0.90;;
8279;SDS011;8335;42.646;23.380;2024-03-25T03:02:41;0.97;;;0.97;;
8279;SDS011;8335;42.646;23.380;2024-03-25T03:05:07;0.97;;;0.97;;
8279;SDS011;8335;42.646;23.380;2024-03-25T03:07:34;0.80;;;0.80;;
8279;SDS011;8335;42.646;23.380;2024-03-25T03:09:59;0.80;;;0.80;;
8279;SDS011;8335;42.646;23.380;2024-03-25T03:12:26;0.80;;;0.80;;
8279;SDS011;8335;42.646;23.380;2024-03-25T03:14:52;0.80;;;0.80;;
8279;SDS011;8335;42.646;23.380;2024-03-25T03:17:20;0.87;;;0.87;;
8279;SDS011;8335;42.646;23.380;2024-03-25T03:19:45;1.00;;;1.00;;
8279;SDS011;8335;42.646;23.380;2024-03-25T03:22:12;0.90;;;0.90;;
8279;SDS011;8335;42.646;23.380;2024-03-25T03:24:38;1.17;;;1.10;;
8279;SDS011;8335;42.646;23.380;2024-03-25T03:27:04;1.37;;;1.27;;
8279;SDS011;8335;42.646;23.380;2024-03-25T03:29:30;1.00;;;1.00;;
8279;SDS011;8335;42.646;23.380;2024-03-25T03:31:57;1.30;;;1.20;;
8279;SDS011;8335;42.646;23.380;2024-03-25T03:34:24;1.00;;;1.00;;
8279;SDS011;8335;42.646;23.380;2024-03-25T03:36:51;1.30;;;1.20;;
8279;SDS011;8335;42.646;23.380;2024-03-25T03:39:16;1.30;;;1.20;;
8279;SDS011;8335;42.646;23.380;2024-03-25T03:41:44;1.33;;;1.23;;
8279;SDS011;8335;42.646;23.380;2024-03-25T03:44:09;1.50;;;1.40;;
8279;SDS011;8335;42.646;23.380;2024-03-25T03:46:37;1.50;;;1.40;;
8279;SDS011;8335;42.646;23.380;2024-03-25T03:49:03;1.50;;;1.40;;
8279;SDS011;8335;42.646;23.380;2024-03-25T03:51:31;1.70;;;1.60;;
8279;SDS011;8335;42.646;23.380;2024-03-25T03:53:56;1.70;;;1.60;;
8279;SDS011;8335;42.646;23.380;2024-03-25T03:56:23;1.80;;;1.50;;
8279;SDS011;8335;42.646;23.380;2024-03-25T03:58:49;2.10;;;1.90;;
8279;SDS011;8335;42.646;23.380;2024-03-25T04:01:16;1.70;;;1.60;;
8279;SDS011;8335;42.646;23.380;2024-03-25T04:03:42;2.53;;;1.67;;
8279;SDS011;8335;42.646;23.380;2024-03-25T04:06:09;2.40;;;2.10;;
8279;SDS011;8335;42.646;23.380;2024-03-25T04:08:37;2.53;;;2.23;;
8279;SDS011;8335;42.646;23.380;2024-03-25T04:11:04;3.57;;;2.20;;
8279;SDS011;8335;42.646;23.380;2024-03-25T04:13:31;2.83;;;2.30;;
8279;SDS011;8335;42.646;23.380;2024-03-25T04:16:00;3.83;;;2.27;;
8279;SDS011;8335;42.646;23.380;2024-03-25T04:18:27;2.10;;;1.90;;
8279;SDS011;8335;42.646;23.380;2024-03-25T04:20:54;3.00;;;2.13;;
8279;SDS011;8335;42.646;23.380;2024-03-25T04:23:20;3.97;;;2.90;;
8279;SDS011;8335;42.646;23.380;2024-03-25T04:25:48;2.73;;;2.37;;
8279;SDS011;8335;42.646;23.380;2024-03-25T04:28:13;4.27;;;2.93;;
8279;SDS011;8335;42.646;23.380;2024-03-25T04:30:40;4.37;;;3.13;;
8279;SDS011;8335;42.646;23.380;2024-03-25T04:33:06;4.93;;;3.27;;
8279;SDS011;8335;42.646;23.380;2024-03-25T04:35:33;4.33;;;3.13;;
8279;SDS011;8335;42.646;23.380;2024-03-25T04:37:59;4.63;;;3.27;;
8279;SDS011;8335;42.646;23.380;2024-03-25T04:40:24;6.90;;;4.07;;
8279;SDS011;8335;42.646;23.380;2024-03-25T04:42:52;5.77;;;3.80;;
8279;SDS011;8335;42.646;23.380;2024-03-25T04:45:17;5.67;;;4.00;;
8279;SDS011;8335;42.646;23.380;2024-03-25T04:47:43;5.70;;;4.10;;
8279;SDS011;8335;42.646;23.380;2024-03-25T04:50:09;7.53;;;4.53;;
8279;SDS011;8335;42.646;23.380;2024-03-25T04:52:34;7.03;;;5.23;;
8279;SDS011;8335;42.646;23.380;2024-03-25T04:55:00;7.20;;;4.70;;
8279;SDS011;8335;42.646;23.380;2024-03-25T04:57:26;9.37;;;5.53;;
8279;SDS011;8335;42.646;23.380;2024-03-25T04:59:53;7.80;;;5.10;;
8279;SDS011;8335;42.646;23.380;2024-03-25T05:02:19;7.43;;;5.30;;
8279;SDS011;8335;42.646;23.380;2024-03-25T05:04:44;7.37;;;5.10;;
8279;SDS011;8335;42.646;23.380;2024-03-25T05:07:10;8.93;;;5.83;;
8279;SDS011;8335;42.646;23.380;2024-03-25T05:09:36;8.03;;;5.50;;
8279;SDS011;8335;42.646;23.380;2024-03-25T05:12:01;7.50;;;5.50;;
8279;SDS011;8335;42.646;23.380;2024-03-25T05:14:27;7.50;;;5.20;;
8279;SDS011;8335;42.646;23.380;2024-03-25T05:16:54;8.27;;;5.40;;
8279;SDS011;8335;42.646;23.380;2024-03-25T05:19:20;9.57;;;5.83;;
8279;SDS011;8335;42.646;23.380;2024-03-25T05:21:46;8.10;;;5.97;;
8279;SDS011;8335;42.646;23.380;2024-03-25T05:24:11;10.20;;;6.33;;
8279;SDS011;8335;42.646;23.380;2024-03-25T05:26:37;8.60;;;5.87;;
8279;SDS011;8335;42.646;23.380;2024-03-25T05:29:03;10.70;;;6.80;;
8279;SDS011;8335;42.646;23.380;2024-03-25T05:31:28;10.27;;;6.03;;
8279;SDS011;8335;42.646;23.380;2024-03-25T05:33:56;9.93;;;6.73;;
8279;SDS011;8335;42.646;23.380;2024-03-25T05:36:21;10.10;;;6.70;;
8279;SDS011;8335;42.646;23.380;2024-03-25T05:38:47;10.43;;;6.97;;
8279;SDS011;8335;42.646;23.380;2024-03-25T05:41:13;9.27;;;6.27;;
8279;SDS011;8335;42.646;23.380;2024-03-25T05:43:38;9.13;;;6.73;;
8279;SDS011;8335;42.646;23.380;2024-03-25T05:46:04;10.13;;;6.87;;
8279;SDS011;8335;42.646;23.380;2024-03-25T05:48:30;10.57;;;6.90;;
8279;SDS011;8335;42.646;23.380;2024-03-25T05:50:58;10.07;;;6.80;;
8279;SDS011;8335;42.646;23.380;2024-03-25T05:53:25;9.50;;;6.60;;
8279;SDS011;8335;42.646;23.380;2024-03-25T05:55:51;11.07;;;7.33;;
8279;SDS011;8335;42.646;23.380;2024-03-25T05:58:16;10.87;;;7.90;;
8279;SDS011;8335;42.646;23.380;2024-03-25T06:00:42;10.73;;;7.50;;
8279;SDS011;8335;42.646;23.380;2024-03-25T06:03:08;12.00;;;7.53;;
8279;SDS011;8335;42.646;23.380;2024-03-25T06:05:33;10.13;;;7.20;;
8279;SDS011;8335;42.646;23.380;2024-03-25T06:08:00;11.90;;;7.40;;
8279;SDS011;8335;42.646;23.380;2024-03-25T06:10:26;10.93;;;6.90;;
8279;SDS011;8335;42.646;23.380;2024-03-25T06:12:52;11.77;;;7.30;;
8279;SDS011;8335;42.646;23.380;2024-03-25T06:15:18;13.50;;;6.87;;
8279;SDS011;8335;42.646;23.380;2024-03-25T06:17:43;9.83;;;6.60;;
8279;SDS011;8335;42.646;23.380;2024-03-25T06:20:10;10.13;;;6.77;;
8279;SDS011;8335;42.646;23.380;2024-03-25T06:22:36;11.30;;;7.80;;
8279;SDS011;8335;42.646;23.380;2024-03-25T06:25:03;10.77;;;7.60;;
8279;SDS011;8335;42.646;23.380;2024-03-25T06:27:29;12.00;;;6.80;;
8279;SDS011;8335;42.646;23.380;2024-03-25T06:29:55;11.70;;;7.27;;
8279;SDS011;8335;42.646;23.380;2024-03-25T06:32:21;12.37;;;8.17;;
8279;SDS011;8335;42.646;23.380;2024-03-25T06:35:05;11.70;;;7.60;;
8279;SDS011;8335;42.646;23.380;2024-03-25T06:37:31;13.50;;;7.37;;
8279;SDS011;8335;42.646;23.380;2024-03-25T06:39:57;10.77;;;7.07;;
8279;SDS011;8335;42.646;23.380;2024-03-25T06:42:24;10.30;;;7.60;;
8279;SDS011;8335;42.646;23.380;2024-03-25T06:44:50;9.97;;;7.00;;
8279;SDS011;8335;42.646;23.380;2024-03-25T06:47:15;10.80;;;6.97;;
8279;SDS011;8335;42.646;23.380;2024-03-25T06:49:41;9.30;;;6.97;;
8279;SDS011;8335;42.646;23.380;2024-03-25T06:52:07;11.03;;;6.90;;
8279;SDS011;8335;42.646;23.380;2024-03-25T06:54:33;10.23;;;6.90;;
8279;SDS011;8335;42.646;23.380;2024-03-25T06:56:59;9.07;;;6.90;;
8279;SDS011;8335;42.646;23.380;2024-03-25T06:59:26;10.10;;;6.90;;
8279;SDS011;8335;42.646;23.380;2024-03-25T07:01:52;9.57;;;6.10;;
8279;SDS011;8335;42.646;23.380;2024-03-25T07:04:17;9.33;;;6.30;;
8279;SDS011;8335;42.646;23.380;2024-03-25T07:06:43;8.13;;;6.40;;
8279;SDS011;8335;42.646;23.380;2024-03-25T07:09:09;7.57;;;6.53;;
8279;SDS011;8335;42.646;23.380;2024-03-25T07:11:35;9.43;;;7.20;;
8279;SDS011;8335;42.646;23.380;2024-03-25T07:14:00;8.33;;;6.20;;
8279;SDS011;8335;42.646;23.380;2024-03-25T07:16:27;8.40;;;6.70;;
8279;SDS011;8335;42.646;23.380;2024-03-25T07:18:53;7.38;;;6.60;;
8279;SDS011;8335;42.646;23.380;2024-03-25T07:21:19;7.93;;;6.68;;
8279;SDS011;8335;42.646;23.380;2024-03-25T07:23:44;8.98;;;5.90;;
8279;SDS011;8335;42.646;23.380;2024-03-25T07:26:10;6.40;;;5.80;;
8279;SDS011;8335;42.646;23.380;2024-03-25T07:28:36;10.57;;;6.63;;
8279;SDS011;8335;42.646;23.380;2024-03-25T07:31:02;7.57;;;6.05;;
8279;SDS011;8335;42.646;23.380;2024-03-25T07:33:29;11.10;;;7.47;;
8279;SDS011;8335;42.646;23.380;2024-03-25T07:35:55;12.93;;;7.00;;
8279;SDS011;8335;42.646;23.380;2024-03-25T07:38:20;7.38;;;5.88;;
8279;SDS011;8335;42.646;23.380;2024-03-25T07:40:46;8.77;;;6.25;;
8279;SDS011;8335;42.646;23.380;2024-03-25T07:43:12;6.55;;;5.88;;
8279;SDS011;8335;42.646;23.380;2024-03-25T07:45:38;8.18;;;5.90;;
8279;SDS011;8335;42.646;23.380;2024-03-25T07:48:03;6.40;;;5.28;;
8279;SDS011;8335;42.646;23.380;2024-03-25T07:50:31;7.40;;;5.78;;
8279;SDS011;8335;42.646;23.380;2024-03-25T07:52:57;7.67;;;5.70;;
8279;SDS011;8335;42.646;23.380;2024-03-25T07:55:22;9.23;;;5.97;;
8279;SDS011;8335;42.646;23.380;2024-03-25T07:57:48;7.75;;;5.57;;
8279;SDS011;8335;42.646;23.380;2024-03-25T08:00:14;6.88;;;5.68;;
8279;SDS011;8335;42.646;23.380;2024-03-25T08:02:40;6.63;;;5.88;;
8279;SDS011;8335;42.646;23.380;2024-03-25T08:05:05;6.72;;;5.60;;
8279;SDS011;8335;42.646;23.380;2024-03-25T08:07:33;7.07;;;5.20;;
8279;SDS011;8335;42.646;23.380;2024-03-25T08:09:58;5.97;;;5.13;;
8279;SDS011;8335;42.646;23.380;2024-03-25T08:12:24;7.43;;;5.40;;
8279;SDS011;8335;42.646;23.380;2024-03-25T08:14:50;6.78;;;5.40;;
8279;SDS011;8335;42.646;23.380;2024-03-25T08:17:15;6.07;;;5.20;;
8279;SDS011;8335;42.646;23.380;2024-03-25T08:19:41;7.90;;;5.50;;
8279;SDS011;8335;42.646;23.380;2024-03-25T08:22:07;6.68;;;5.63;;
8279;SDS011;8335;42.646;23.380;2024-03-25T08:24:34;5.75;;;5.18;;
8279;SDS011;8335;42.646;23.380;2024-03-25T08:26:59;5.90;;;5.30;;
8279;SDS011;8335;42.646;23.380;2024-03-25T08:29:25;8.48;;;5.65;;
8279;SDS011;8335;42.646;23.380;2024-03-25T08:31:51;7.07;;;5.03;;
8279;SDS011;8335;42.646;23.380;2024-03-25T08:34:16;6.25;;;5.32;;
8279;SDS011;8335;42.646;23.380;2024-03-25T08:36:42;5.78;;;5.18;;
8279;SDS011;8335;42.646;23.380;2024-03-25T08:39:10;6.30;;;5.60;;
8279;SDS011;8335;42.646;23.380;2024-03-25T08:41:37;5.90;;;5.30;;
8279;SDS011;8335;42.646;23.380;2024-03-25T08:44:03;8.88;;;5.25;;
8279;SDS011;8335;42.646;23.380;2024-03-25T08:46:29;6.03;;;5.20;;
8279;SDS011;8335;42.646;23.380;2024-03-25T08:48:55;11.23;;;5.00;;
8279;SDS011;8335;42.646;23.380;2024-03-25T08:51:20;7.47;;;5.07;;
8279;SDS011;8335;42.646;23.380;2024-03-25T08:53:46;5.57;;;4.83;;
8279;SDS011;8335;42.646;23.380;2024-03-25T08:56:12;7.53;;;5.20;;
8279;SDS011;8335;42.646;23.380;2024-03-25T08:58:39;5.70;;;5.13;;
8279;SDS011;8335;42.646;23.380;2024-03-25T09:01:04;5.87;;;4.80;;
8279;SDS011;8335;42.646;23.380;2024-03-25T09:03:30;5.90;;;4.90;;
8279;SDS011;8335;42.646;23.380;2024-03-25T09:05:56;16.50;;;8.90;;
8279;SDS011;8335;42.646;23.380;2024-03-25T09:08:21;9.77;;;6.53;;
8279;SDS011;8335;42.646;23.380;2024-03-25T09:10:47;9.33;;;6.20;;
8279;SDS011;8335;42.646;23.380;2024-03-25T09:13:28;7.67;;;5.47;;
8279;SDS011;8335;42.646;23.380;2024-03-25T09:15:55;7.30;;;5.60;;
8279;SDS011;8335;42.646;23.380;2024-03-25T09:18:21;6.63;;;5.30;;
8279;SDS011;8335;42.646;23.380;2024-03-25T09:20:47;6.40;;;5.60;;
8279;SDS011;8335;42.646;23.380;2024-03-25T09:23:13;7.73;;;5.60;;
8279;SDS011;8335;42.646;23.380;2024-03-25T09:25:38;7.37;;;5.70;;
8279;SDS011;8335;42.646;23.380;2024-03-25T09:28:04;10.13;;;5.80;;
8279;SDS011;8335;42.646;23.380;2024-03-25T09:30:31;8.10;;;5.77;;
8279;SDS011;8335;42.646;23.380;2024-03-25T09:32:58;16.63;;;6.63;;
8279;SDS011;8335;42.646;23.380;2024-03-25T09:35:23;8.30;;;6.07;;
8279;SDS011;8335;42.646;23.380;2024-03-25T09:37:49;6.20;;;5.40;;
8279;SDS011;8335;42.646;23.380;2024-03-25T09:40:15;6.53;;;5.47;;
8279;SDS011;8335;42.646;23.380;2024-03-25T09:42:42;6.23;;;5.63;;
8279;SDS011;8335;42.646;23.380;2024-03-25T09:45:12;6.27;;;5.20;;
8279;SDS011;8335;42.646;23.380;2024-03-25T09:47:40;9.00;;;6.20;;
8279;SDS011;8335;42.646;23.380;2024-03-25T09:50:11;7.40;;;6.30;;
8279;SDS011;8335;42.646;23.380;2024-03-25T09:52:37;8.00;;;5.23;;
8279;SDS011;8335;42.646;23.380;2024-03-25T09:55:03;6.17;;;5.20;;
8279;SDS011;8335;42.646;23.380;2024-03-25T09:57:30;6.83;;;5.80;;
8279;SDS011;8335;42.646;23.380;2024-03-25T09:59:56;7.20;;;5.07;;
8279;SDS011;8335;42.646;23.380;2024-03-25T10:02:22;7.00;;;5.47;;
8279;SDS011;8335;42.646;23.380;2024-03-25T10:04:48;5.80;;;5.17;;
8279;SDS011;8335;42.646;23.380;2024-03-25T10:07:21;7.20;;;5.10;;
8279;SDS011;8335;42.646;23.380;2024-03-25T10:09:47;6.63;;;5.37;;
8279;SDS011;8335;42.646;23.380;2024-03-25T10:12:13;7.53;;;5.70;;
8279;SDS011;8335;42.646;23.380;2024-03-25T10:14:39;8.17;;;5.57;;
8279;SDS011;8335;42.646;23.380;2024-03-25T10:17:05;7.53;;;4.93;;
8279;SDS011;8335;42.646;23.380;2024-03-25T10:19:31;5.83;;;4.80;;
8279;SDS011;8335;42.646;23.380;2024-03-25T10:22:01;4.63;;;4.13;;
8279;SDS011;8335;42.646;23.380;2024-03-25T10:24:37;4.90;;;4.10;;
8279;SDS011;8335;42.646;23.380;2024-03-25T10:27:03;4.57;;;4.10;;
8279;SDS011;8335;42.646;23.380;2024-03-25T10:29:29;5.57;;;4.97;;
8279;SDS011;8335;42.646;23.380;2024-03-25T10:31:58;4.80;;;4.30;;
8279;SDS011;8335;42.646;23.380;2024-03-25T10:34:24;7.43;;;4.27;;
8279;SDS011;8335;42.646;23.380;2024-03-25T10:36:50;4.63;;;4.00;;
8279;SDS011;8335;42.646;23.380;2024-03-25T10:39:17;5.67;;;4.40;;
8279;SDS011;8335;42.646;23.380;2024-03-25T10:41:47;7.10;;;4.17;;
8279;SDS011;8335;42.646;23.380;2024-03-25T10:44:14;5.73;;;4.10;;
8279;SDS011;8335;42.646;23.380;2024-03-25T10:46:40;4.23;;;3.73;;
8279;SDS011;8335;42.646;23.380;2024-03-25T10:49:07;5.07;;;4.20;;
8279;SDS011;8335;42.646;23.380;2024-03-25T10:51:39;5.30;;;3.60;;
8279;SDS011;8335;42.646;23.380;2024-03-25T10:54:07;4.13;;;3.30;;
8279;SDS011;8335;42.646;23.380;2024-03-25T10:56:33;4.07;;;3.37;;
8279;SDS011;8335;42.646;23.380;2024-03-25T10:59:01;7.45;;;3.53;;
8279;SDS011;8335;42.646;23.380;2024-03-25T11:01:28;5.60;;;3.47;;
8279;SDS011;8335;42.646;23.380;2024-03-25T11:03:55;3.83;;;3.33;;
8279;SDS011;8335;42.646;23.380;2024-03-25T11:06:22;4.27;;;3.83;;
8279;SDS011;8335;42.646;23.380;2024-03-25T11:08:55;4.00;;;3.60;;
8279;SDS011;8335;42.646;23.380;2024-03-25T11:11:21;4.73;;;3.93;;
8279;SDS011;8335;42.646;23.380;2024-03-25T11:13:47;8.63;;;3.63;;
8279;SDS011;8335;42.646;23.380;2024-03-25T11:16:25;5.10;;;3.83;;
8279;SDS011;8335;42.646;23.380;2024-03-25T11:18:53;7.07;;;3.80;;
8279;SDS011;8335;42.646;23.380;2024-03-25T11:21:24;3.83;;;3.30;;
8279;SDS011;8335;42.646;23.380;2024-03-25T11:23:50;3.70;;;3.33;;
8279;SDS011;8335;42.646;23.380;2024-03-25T11:26:16;3.87;;;3.43;;
8279;SDS011;8335;42.646;23.380;2024-03-25T11:28:44;7.13;;;4.03;;
8279;SDS011;8335;42.646;23.380;2024-03-25T11:31:10;4.20;;;3.80;;
8279;SDS011;8335;42.646;23.380;2024-03-25T11:33:38;3.90;;;3.50;;
8279;SDS011;8335;42.646;23.380;2024-03-25T11:36:04;4.40;;;3.40;;
8279;SDS011;8335;42.646;23.380;2024-03-25T11:38:30;5.73;;;3.60;;
8279;SDS011;8335;42.646;23.380;2024-03-25T11:40:56;5.07;;;3.30;;
8279;SDS011;8335;42.646;23.380;2024-03-25T11:43:22;3.47;;;2.77;;
8279;SDS011;8335;42.646;23.380;2024-03-25T11:45:49;3.50;;;2.70;;
8279;SDS011;8335;42.646;23.380;2024-03-25T11:48:15;3.53;;;3.00;;
8279;SDS011;8335;42.646;23.380;2024-03-25T11:50:44;5.07;;;3.50;;
8279;SDS011;8335;42.646;23.380;2024-03-25T11:53:10;4.23;;;3.43;;
8279;SDS011;8335;42.646;23.380;2024-03-25T11:55:38;6.63;;;3.50;;
8279;SDS011;8335;42.646;23.380;2024-03-25T11:58:04;6.03;;;3.93;;
8279;SDS011;8335;42.646;23.380;2024-03-25T12:00:30;3.87;;;3.27;;
8279;SDS011;8335;42.646;23.380;2024-03-25T12:02:55;6.80;;;3.80;;
8279;SDS011;8335;42.646;23.380;2024-03-25T12:05:21;6.77;;;3.80;;
8279;SDS011;8335;42.646;23.380;2024-03-25T12:07:48;3.97;;;3.30;;
8279;SDS011;8335;42.646;23.380;2024-03-25T12:10:15;4.63;;;3.60;;
8279;SDS011;8335;42.646;23.380;2024-03-25T12:12:58;3.80;;;3.43;;
8279;SDS011;8335;42.646;23.380;2024-03-25T12:15:24;3.90;;;3.47;;
8279;SDS011;8335;42.646;23.380;2024-03-25T12:17:50;5.23;;;3.23;;
8279;SDS011;8335;42.646;23.380;2024-03-25T12:20:17;3.63;;;3.30;;
8279;SDS011;8335;42.646;23.380;2024-03-25T12:22:43;4.07;;;3.23;;
8279;SDS011;8335;42.646;23.380;2024-03-25T12:25:10;5.73;;;3.10;;
8279;SDS011;8335;42.646;23.380;2024-03-25T12:27:37;4.43;;;3.20;;
8279;SDS011;8335;42.646;23.380;2024-03-25T12:30:04;4.80;;;3.37;;
8279;SDS011;8335;42.646;23.380;2024-03-25T12:32:31;4.37;;;3.27;;
8279;SDS011;8335;42.646;23.380;2024-03-25T12:35:01;6.80;;;3.33;;
8279;SDS011;8335;42.646;23.380;2024-03-25T12:37:27;3.70;;;3.30;;
8279;SDS011;8335;42.646;23.380;2024-03-25T12:39:53;6.13;;;3.43;;
8279;SDS011;8335;42.646;23.380;2024-03-25T12:42:20;6.30;;;3.90;;
8279;SDS011;8335;42.646;23.380;2024-03-25T12:44:46;4.23;;;3.67;;
8279;SDS011;8335;42.646;23.380;2024-03-25T12:47:11;8.50;;;3.23;;
8279;SDS011;8335;42.646;23.380;2024-03-25T12:49:37;4.53;;;3.30;;
8279;SDS011;8335;42.646;23.380;2024-03-25T12:52:04;3.50;;;3.20;;
8279;SDS011;8335;42.646;23.380;2024-03-25T12:54:31;4.87;;;3.43;;
8279;SDS011;8335;42.646;23.380;2024-03-25T12:56:57;3.80;;;3.37;;
8279;SDS011;8335;42.646;23.380;2024-03-25T12:59:24;4.47;;;3.60;;
8279;SDS011;8335;42.646;23.380;2024-03-25T13:01:50;4.30;;;3.27;;
8279;SDS011;8335;42.646;23.380;2024-03-25T13:04:16;4.00;;;3.60;;
8279;SDS011;8335;42.646;23.380;2024-03-25T13:06:42;4.27;;;3.60;;
8279;SDS011;8335;42.646;23.380;2024-03-25T13:09:08;4.00;;;3.60;;
8279;SDS011;8335;42.646;23.380;2024-03-25T13:11:33;4.60;;;3.57;;
8279;SDS011;8335;42.646;23.380;2024-03-25T13:13:59;5.70;;;3.20;;
8279;SDS011;8335;42.646;23.380;2024-03-25T13:16:27;4.80;;;2.77;;
8279;SDS011;8335;42.646;23.380;2024-03-25T13:18:52;3.50;;;2.77;;
8279;SDS011;8335;42.646;23.380;2024-03-25T13:21:18;5.07;;;3.70;;
8279;SDS011;8335;42.646;23.380;2024-03-25T13:23:44;5.57;;;3.80;;
8279;SDS011;8335;42.646;23.380;2024-03-25T13:26:09;4.33;;;3.70;;
8279;SDS011;8335;42.646;23.380;2024-03-25T13:28:35;4.30;;;3.90;;
8279;SDS011;8335;42.646;23.380;2024-03-25T13:31:01;3.67;;;3.33;;
8279;SDS011;8335;42.646;23.380;2024-03-25T13:33:28;5.40;;;3.30;;
8279;SDS011;8335;42.646;23.380;2024-03-25T13:35:54;3.10;;;2.80;;
8279;SDS011;8335;42.646;23.380;2024-03-25T13:38:19;3.67;;;3.27;;
8279;SDS011;8335;42.646;23.380;2024-03-25T13:40:45;4.33;;;3.33;;
8279;SDS011;8335;42.646;23.380;2024-03-25T13:43:11;6.40;;;3.27;;
8279;SDS011;8335;42.646;23.380;2024-03-25T13:45:37;4.47;;;2.97;;
8279;SDS011;8335;42.646;23.380;2024-03-25T13:48:11;5.00;;;2.77;;
8279;SDS011;8335;42.646;23.380;2024-03-25T13:50:39;4.37;;;3.17;;
8279;SDS011;8335;42.646;23.380;2024-03-25T13:53:04;4.70;;;3.20;;
8279;SDS011;8335;42.646;23.380;2024-03-25T13:55:30;4.43;;;3.20;;
8279;SDS011;8335;42.646;23.380;2024-03-25T13:57:56;3.37;;;2.90;;
8279;SDS011;8335;42.646;23.380;2024-03-25T14:00:21;4.43;;;3.20;;
8279;SDS011;8335;42.646;23.380;2024-03-25T14:02:47;5.33;;;2.90;;
8279;SDS011;8335;42.646;23.380;2024-03-25T14:05:13;3.20;;;2.90;;
8279;SDS011;8335;42.646;23.380;2024-03-25T14:07:40;5.07;;;3.13;;
8279;SDS011;8335;42.646;23.380;2024-03-25T14:10:06;5.80;;;2.80;;
8279;SDS011;8335;42.646;23.380;2024-03-25T14:12:32;5.37;;;2.70;;
8279;SDS011;8335;42.646;23.380;2024-03-25T14:14:58;5.13;;;2.60;;
8279;SDS011;8335;42.646;23.380;2024-03-25T14:17:24;2.50;;;2.30;;
8279;SDS011;8335;42.646;23.380;2024-03-25T14:19:53;4.70;;;2.23;;
8279;SDS011;8335;42.646;23.380;2024-03-25T14:22:20;5.20;;;1.90;;
8279;SDS011;8335;42.646;23.380;2024-03-25T14:24:47;2.47;;;1.87;;
8279;SDS011;8335;42.646;23.380;2024-03-25T14:27:13;4.23;;;2.13;;
8279;SDS011;8335;42.646;23.380;2024-03-25T14:29:39;4.90;;;2.30;;
8279;SDS011;8335;42.646;23.380;2024-03-25T14:32:06;1.90;;;1.70;;
8279;SDS011;8335;42.646;23.380;2024-03-25T14:34:32;2.80;;;1.97;;
8279;SDS011;8335;42.646;23.380;2024-03-25T14:36:58;7.00;;;2.20;;
8279;SDS011;8335;42.646;23.380;2024-03-25T14:39:24;5.40;;;2.30;;
8279;SDS011;8335;42.646;23.380;2024-03-25T14:41:51;2.50;;;2.00;;
8279;SDS011;8335;42.646;23.380;2024-03-25T14:44:17;3.60;;;1.93;;
8279;SDS011;8335;42.646;23.380;2024-03-25T14:46:42;2.43;;;2.00;;
8279;SDS011;8335;42.646;23.380;2024-03-25T14:49:08;2.40;;;2.20;;
8279;SDS011;8335;42.646;23.380;2024-03-25T14:51:34;6.87;;;2.10;;
8279;SDS011;8335;42.646;23.380;2024-03-25T14:53:59;3.27;;;2.97;;
8279;SDS011;8335;42.646;23.380;2024-03-25T14:56:25;7.17;;;2.20;;